createdAt,value
2023-03-22T00:01:09.456Z,38.57
2023-03-22T00:03:35.915Z,38.58
2023-03-22T00:06:02.219Z,38.57
2023-03-22T00:08:28.629Z,38.63
2023-03-22T00:10:54.967Z,38.59
2023-03-22T00:13:21.347Z,38.77
2023-03-22T00:15:47.767Z,38.71
2023-03-22T00:18:14.079Z,38.67
2023-03-22T00:20:40.773Z,38.70
2023-03-22T00:23:06.848Z,38.73
2023-03-22T00:25:33.195Z,38.75
2023-03-22T00:27:59.544Z,38.70
2023-03-22T00:30:25.930Z,38.70
2023-03-22T00:32:52.277Z,38.66
2023-03-22T00:35:19.733Z,38.70
2023-03-22T00:37:46.041Z,38.73
2023-03-22T00:40:12.445Z,38.79
2023-03-22T00:42:38.787Z,38.78
2023-03-22T00:45:05.161Z,38.78
2023-03-22T00:47:31.520Z,38.72
2023-03-22T00:49:57.913Z,38.71
2023-03-22T00:52:25.457Z,38.68
2023-03-22T00:54:50.665Z,38.70
2023-03-22T00:57:17.010Z,38.72
2023-03-22T00:59:43.386Z,38.75
2023-03-22T01:02:09.735Z,38.80
2023-03-22T01:04:36.110Z,38.78
2023-03-22T01:07:02.470Z,38.79
2023-03-22T01:09:28.866Z,38.79
2023-03-22T01:11:55.235Z,38.79
2023-03-22T01:14:21.693Z,38.83
2023-03-22T01:16:48.091Z,38.83
2023-03-22T01:19:14.422Z,38.88
2023-03-22T01:21:40.770Z,38.87
2023-03-22T01:24:07.165Z,38.87
2023-03-22T01:26:33.549Z,38.86
2023-03-22T01:28:59.933Z,38.86
2023-03-22T01:31:26.282Z,38.88
2023-03-22T01:33:52.671Z,38.90
2023-03-22T01:36:19.030Z,38.89
2023-03-22T01:38:45.437Z,38.94
2023-03-22T01:41:11.791Z,38.92
2023-03-22T01:43:38.185Z,38.93
2023-03-22T01:46:04.548Z,38.89
2023-03-22T01:48:30.920Z,38.95
2023-03-22T01:50:57.275Z,38.92
2023-03-22T01:53:23.713Z,38.92
2023-03-22T01:58:16.179Z,38.96
2023-03-22T02:00:42.533Z,38.97
2023-03-22T02:03:08.901Z,38.99
2023-03-22T02:05:35.250Z,38.98
2023-03-22T02:08:01.628Z,38.98
2023-03-22T02:10:27.998Z,38.98
2023-03-22T02:12:54.392Z,38.97
2023-03-22T02:15:20.826Z,39.02
2023-03-22T02:17:48.443Z,38.98
2023-03-22T02:20:13.559Z,38.99
2023-03-22T02:22:39.960Z,39.04
2023-03-22T02:25:06.309Z,39.00
2023-03-22T02:27:32.688Z,39.04
2023-03-22T02:29:59.022Z,39.02
2023-03-22T02:32:25.432Z,38.99
2023-03-22T02:34:51.766Z,39.06
2023-03-22T02:37:18.167Z,39.05
2023-03-22T02:39:44.499Z,39.06
2023-03-22T02:42:10.890Z,39.06
2023-03-22T02:44:37.233Z,39.06
2023-03-22T02:47:03.618Z,39.06
2023-03-22T02:49:29.974Z,39.08
2023-03-22T02:51:56.366Z,39.08
2023-03-22T02:54:22.737Z,39.08
2023-03-22T02:56:49.100Z,39.11
2023-03-22T02:59:15.478Z,39.12
2023-03-22T03:01:41.937Z,39.08
2023-03-22T03:04:08.260Z,39.12
2023-03-22T03:06:34.671Z,39.14
2023-03-22T03:09:03.446Z,39.13
2023-03-22T03:11:31.540Z,39.13
2023-03-22T03:13:56.207Z,39.11
2023-03-22T03:16:22.626Z,39.15
2023-03-22T03:18:49.000Z,39.12
2023-03-22T03:21:15.387Z,39.08
2023-03-22T03:23:41.736Z,39.08
2023-03-22T03:26:08.143Z,39.06
2023-03-22T03:28:34.482Z,39.03
2023-03-22T03:31:00.887Z,39.07
2023-03-22T03:33:27.236Z,38.95
2023-03-22T03:35:53.690Z,38.91
2023-03-22T03:38:20.009Z,38.92
2023-03-22T03:40:46.393Z,38.87
2023-03-22T03:43:12.726Z,38.82
2023-03-22T03:45:39.174Z,38.79
2023-03-22T03:48:05.483Z,38.80
2023-03-22T03:50:31.900Z,38.74
2023-03-22T03:52:58.252Z,38.74
2023-03-22T03:55:24.634Z,38.73
2023-03-22T03:57:51.076Z,38.69
2023-03-22T04:00:17.461Z,38.63
2023-03-22T04:02:43.812Z,38.59
2023-03-22T04:05:13.272Z,38.62
2023-03-22T04:07:39.642Z,38.61
2023-03-22T04:10:06.019Z,38.53
2023-03-22T04:12:32.354Z,38.50
2023-03-22T04:14:58.754Z,38.47
2023-03-22T04:17:25.126Z,38.43
2023-03-22T04:19:51.512Z,38.43
2023-03-22T04:22:17.864Z,38.40
2023-03-22T04:24:44.261Z,38.41
2023-03-22T04:27:10.654Z,38.33
2023-03-22T04:29:37.038Z,38.29
2023-03-22T04:32:03.447Z,38.22
2023-03-22T04:34:29.828Z,38.18
2023-03-22T04:36:56.176Z,38.21
2023-03-22T04:39:23.541Z,38.18
2023-03-22T04:41:48.933Z,38.17
2023-03-22T04:44:15.337Z,38.16
2023-03-22T04:46:41.726Z,38.11
2023-03-22T04:49:08.079Z,38.09
2023-03-22T04:51:34.456Z,38.04
2023-03-22T04:54:00.850Z,38.07
2023-03-22T04:56:27.202Z,38.00
2023-03-22T04:58:53.571Z,37.97
2023-03-22T05:01:19.979Z,37.95
2023-03-22T05:03:46.308Z,37.97
2023-03-22T05:06:12.682Z,38.12
2023-03-22T05:08:39.094Z,38.14
2023-03-22T05:11:05.466Z,38.14
2023-03-22T05:13:31.848Z,38.08
2023-03-22T05:15:58.255Z,38.07
2023-03-22T05:18:24.586Z,38.05
2023-03-22T05:20:50.927Z,38.03
2023-03-22T05:23:17.318Z,38.02
2023-03-22T05:25:43.674Z,37.96
2023-03-22T05:28:10.083Z,37.95
2023-03-22T05:30:36.506Z,37.95
2023-03-22T05:33:02.831Z,37.96
2023-03-22T05:35:29.205Z,37.92
2023-03-22T05:37:55.597Z,37.90
2023-03-22T05:40:21.994Z,37.88
2023-03-22T05:42:49.383Z,37.86
2023-03-22T05:45:14.683Z,37.88
2023-03-22T05:47:41.109Z,37.87
2023-03-22T05:50:07.471Z,37.82
2023-03-22T05:52:33.871Z,37.85
2023-03-22T05:55:00.369Z,37.86
2023-03-22T05:57:26.738Z,37.83
2023-03-22T05:59:53.088Z,37.85
2023-03-22T06:02:19.564Z,37.91
2023-03-22T06:04:45.828Z,37.96
2023-03-22T06:07:12.236Z,37.99
2023-03-22T06:09:38.571Z,37.92
2023-03-22T06:12:04.975Z,37.90
2023-03-22T06:14:31.330Z,37.83
2023-03-22T06:16:57.733Z,37.86
2023-03-22T06:19:24.082Z,37.85
2023-03-22T06:24:16.642Z,37.88
2023-03-22T06:26:43.030Z,37.84
2023-03-22T06:29:09.403Z,37.80
2023-03-22T06:31:35.888Z,37.75
2023-03-22T06:34:02.203Z,37.78
2023-03-22T06:36:28.606Z,37.77
2023-03-22T06:38:54.945Z,37.83
2023-03-22T06:41:21.336Z,37.81
2023-03-22T06:43:47.689Z,37.88
2023-03-22T06:46:14.139Z,37.91
2023-03-22T06:48:40.410Z,37.84
2023-03-22T06:51:06.826Z,37.85
2023-03-22T06:53:33.240Z,37.81
2023-03-22T06:55:59.594Z,37.85
2023-03-22T06:58:25.956Z,37.96
2023-03-22T07:00:52.351Z,37.96
2023-03-22T07:03:18.692Z,37.93
2023-03-22T07:05:45.120Z,37.84
2023-03-22T07:08:11.516Z,37.82
2023-03-22T07:10:38.401Z,37.80
2023-03-22T07:13:04.284Z,37.77
2023-03-22T07:15:30.756Z,37.79
2023-03-22T07:17:57.028Z,37.76
2023-03-22T07:20:23.419Z,37.78
2023-03-22T07:22:49.804Z,37.87
2023-03-22T07:25:16.182Z,37.93
2023-03-22T07:27:42.539Z,37.90
2023-03-22T07:30:09.814Z,37.93
2023-03-22T07:32:35.426Z,37.96
2023-03-22T07:35:01.683Z,37.97
2023-03-22T07:37:28.043Z,37.95
2023-03-22T07:39:54.461Z,37.90
2023-03-22T07:42:20.877Z,37.94
2023-03-22T07:44:47.368Z,37.97
2023-03-22T07:47:13.675Z,37.95
2023-03-22T07:49:40.047Z,37.98
2023-03-22T07:52:06.449Z,37.95
2023-03-22T07:54:34.408Z,37.95
2023-03-22T07:56:59.244Z,38.00
2023-03-22T07:59:25.628Z,37.98
2023-03-22T08:01:52.030Z,38.01
2023-03-22T08:04:18.376Z,38.05
2023-03-22T08:06:44.762Z,38.02
2023-03-22T08:09:11.157Z,38.06
2023-03-22T08:11:37.531Z,38.23
2023-03-22T08:14:03.962Z,38.41
2023-03-22T08:16:30.402Z,38.23
2023-03-22T08:18:56.817Z,38.37
2023-03-22T08:21:23.211Z,38.33
2023-03-22T08:23:49.941Z,38.40
2023-03-22T08:26:16.033Z,38.51
2023-03-22T08:28:42.434Z,38.38
2023-03-22T08:31:08.838Z,38.39
2023-03-22T08:33:35.236Z,38.39
2023-03-22T08:36:01.653Z,38.39
2023-03-22T08:38:28.039Z,38.39
2023-03-22T08:40:54.741Z,38.37
2023-03-22T08:43:21.166Z,38.33
2023-03-22T08:45:47.639Z,38.24
2023-03-22T08:48:14.000Z,38.32
2023-03-22T08:50:40.363Z,38.32
2023-03-22T08:53:06.757Z,38.25
2023-03-22T08:55:33.114Z,38.21
2023-03-22T08:57:59.515Z,38.23
2023-03-22T09:00:25.929Z,38.12
2023-03-22T09:02:52.285Z,38.03
2023-03-22T09:05:21.849Z,38.05
2023-03-22T09:07:48.267Z,38.00
2023-03-22T09:10:14.641Z,38.08
2023-03-22T09:12:41.070Z,38.05
2023-03-22T09:15:07.437Z,38.11
2023-03-22T09:17:33.831Z,38.05
2023-03-22T09:20:11.407Z,38.02
2023-03-22T09:22:26.570Z,38.02
2023-03-22T09:24:52.941Z,38.03
2023-03-22T09:27:19.374Z,38.02
2023-03-22T09:29:45.713Z,38.04
2023-03-22T09:32:12.137Z,38.02
2023-03-22T09:34:38.499Z,37.97
2023-03-22T09:37:04.993Z,37.93
2023-03-22T09:39:31.296Z,37.90
2023-03-22T09:41:57.701Z,37.97
2023-03-22T09:44:24.087Z,37.87
2023-03-22T09:46:50.484Z,37.88
2023-03-22T09:49:16.834Z,37.90
2023-03-22T09:51:43.240Z,37.88
2023-03-22T09:54:09.587Z,37.98
2023-03-22T09:56:36.015Z,37.98
2023-03-22T09:59:02.418Z,37.65
2023-03-22T10:01:29.076Z,37.65
2023-03-22T10:03:55.209Z,37.66
2023-03-22T10:06:21.580Z,37.61
2023-03-22T10:08:47.977Z,37.59
2023-03-22T10:11:14.413Z,38.11
2023-03-22T10:13:40.877Z,37.22
2023-03-22T10:16:07.308Z,37.22
2023-03-22T10:18:33.611Z,36.72
2023-03-22T10:21:00.025Z,36.72
2023-03-22T10:23:26.373Z,37.22
2023-03-22T10:25:52.844Z,37.16
2023-03-22T10:28:19.183Z,37.15
2023-03-22T10:30:45.597Z,37.15
2023-03-22T10:33:11.940Z,37.16
2023-03-22T10:35:38.783Z,37.15
2023-03-22T10:38:04.727Z,37.09
2023-03-22T10:40:31.079Z,37.11
2023-03-22T10:42:57.460Z,37.08
2023-03-22T10:45:23.871Z,37.08
2023-03-22T10:47:50.299Z,37.10
2023-03-22T10:50:16.622Z,37.13
2023-03-22T10:52:43.011Z,37.09
2023-03-22T10:55:09.392Z,37.08
2023-03-22T10:57:35.784Z,37.12
2023-03-22T11:00:02.136Z,37.08
2023-03-22T11:02:28.740Z,36.89
2023-03-22T11:04:54.892Z,37.06
2023-03-22T11:07:21.287Z,37.02
2023-03-22T11:09:47.635Z,37.00
2023-03-22T11:12:14.075Z,37.02
2023-03-22T11:14:40.451Z,37.01
2023-03-22T11:17:06.866Z,36.96
2023-03-22T11:19:33.263Z,36.96
2023-03-22T11:21:59.672Z,36.87
2023-03-22T11:24:26.021Z,36.90
2023-03-22T11:26:52.441Z,36.35
2023-03-22T11:29:18.816Z,36.35
2023-03-22T11:31:45.268Z,36.89
2023-03-22T11:34:11.551Z,37.09
2023-03-22T11:36:37.949Z,36.85
2023-03-22T11:39:04.295Z,36.77
2023-03-22T11:41:30.689Z,37.06
2023-03-22T11:43:57.081Z,37.06
2023-03-22T11:46:23.521Z,36.57
2023-03-22T11:48:49.828Z,37.14
2023-03-22T11:51:17.821Z,37.14
2023-03-22T11:53:42.555Z,37.11
2023-03-22T11:56:09.076Z,37.11
2023-03-22T11:58:35.388Z,36.93
2023-03-22T12:01:01.769Z,36.89
2023-03-22T12:03:28.373Z,36.90
2023-03-22T12:05:54.551Z,37.01
2023-03-22T12:08:20.893Z,37.11
2023-03-22T12:10:47.298Z,36.98
2023-03-22T12:13:13.700Z,37.00
2023-03-22T12:15:40.126Z,37.00
2023-03-22T12:18:07.952Z,36.95
2023-03-22T12:20:32.894Z,36.67
2023-03-22T12:22:59.448Z,36.88
2023-03-22T12:25:25.852Z,36.88
2023-03-22T12:27:52.220Z,36.99
2023-03-22T12:30:18.712Z,36.99
2023-03-22T12:32:45.133Z,37.01
2023-03-22T12:35:17.323Z,36.97
2023-03-22T12:37:38.888Z,37.42
2023-03-22T12:40:04.286Z,37.42
2023-03-22T12:42:30.803Z,36.96
2023-03-22T12:45:04.558Z,37.00
2023-03-22T12:47:23.417Z,36.52
2023-03-22T12:49:49.887Z,36.77
2023-03-22T12:52:16.275Z,36.81
2023-03-22T12:54:42.723Z,37.36
2023-03-22T12:57:09.287Z,37.36
2023-03-22T12:59:35.663Z,36.83
2023-03-22T13:02:02.063Z,36.98
2023-03-22T13:04:28.457Z,36.98
2023-03-22T13:06:54.816Z,36.79
2023-03-22T13:09:21.201Z,36.75
2023-03-22T13:11:47.570Z,36.78
2023-03-22T13:14:13.956Z,36.77
2023-03-22T13:16:40.416Z,36.58
2023-03-22T13:19:06.778Z,36.58
2023-03-22T13:21:33.111Z,36.95
2023-03-22T13:23:59.545Z,36.78
2023-03-22T13:26:25.900Z,36.69
2023-03-22T13:28:52.290Z,37.38
2023-03-22T13:31:18.676Z,37.38
2023-03-22T13:33:45.037Z,36.82
2023-03-22T13:36:11.489Z,36.82
2023-03-22T13:38:37.844Z,36.96
2023-03-22T13:41:04.170Z,36.91
2023-03-22T13:43:30.596Z,36.88
2023-03-22T13:45:57.135Z,36.92
2023-03-22T13:48:23.630Z,36.88
2023-03-22T13:50:49.895Z,36.82
2023-03-22T13:53:16.274Z,36.87
2023-03-22T13:55:42.830Z,36.86
2023-03-22T13:58:09.041Z,36.88
2023-03-22T14:00:35.390Z,36.89
2023-03-22T14:03:01.887Z,37.16
2023-03-22T14:05:28.174Z,36.73
2023-03-22T14:07:54.587Z,36.91
2023-03-22T14:10:20.949Z,36.91
2023-03-22T14:12:47.359Z,36.89
2023-03-22T14:15:13.717Z,36.94
2023-03-22T14:17:40.209Z,36.96
2023-03-22T14:20:06.461Z,37.19
